Time;durP1;ratioP1;P1;durP2;ratioP2;P2;SDS_P1;SDS_P2;PMS_P1;PMS_P2;Temp;Humidity;BMP_temperature;BMP_pressure;BME280_temperature;BME280_humidity;BME280_pressure;Samples;Min_cycle;Max_cycle;Signal;HPM_P1;HPM_P2
2023/01/02 00:01:52;;;;;;;4.82;2.70;;;17.80;63.70;;;;;;5069261;28;20101;-63
2023/01/02 00:04:19;;;;;;;13.80;2.92;;;17.80;64.40;;;;;;5072705;28;20069;-64
2023/01/02 00:06:45;;;;;;;13.63;4.32;;;17.80;65.00;;;;;;5069209;28;20081;-64
2023/01/02 00:09:12;;;;;;;10.05;3.75;;;17.70;66.20;;;;;;5070332;28;20429;-65
2023/01/02 00:11:38;;;;;;;6.22;1.90;;;17.60;66.30;;;;;;5073760;28;20069;-65
2023/01/02 00:14:05;;;;;;;4.38;1.80;;;17.50;64.70;;;;;;5070114;28;20065;-64
2023/01/02 00:16:31;;;;;;;5.43;1.63;;;17.40;64.20;;;;;;5069627;28;20085;-65
2023/01/02 00:18:57;;;;;;;7.28;1.10;;;17.30;64.30;;;;;;5068450;28;20069;-67
2023/01/02 00:21:24;;;;;;;10.52;1.50;;;17.20;64.80;;;;;;5070351;28;20584;-66
2023/01/02 00:23:50;;;;;;;5.40;1.75;;;17.10;66.00;;;;;;5068803;28;20092;-65
2023/01/02 00:26:17;;;;;;;8.70;2.05;;;17.10;66.50;;;;;;5069228;28;20542;-65
2023/01/02 00:28:43;;;;;;;11.68;2.20;;;17.00;66.90;;;;;;5073557;28;20077;-68
2023/01/02 00:31:12;;;;;;;5.25;1.80;;;16.90;67.40;;;;;;5069248;28;20104;-70
2023/01/02 00:33:39;;;;;;;24.88;2.65;;;16.80;68.30;;;;;;5068366;28;20459;-69
2023/01/02 00:36:11;;;;;;;15.43;2.47;;;16.70;68.70;;;;;;5069836;28;20483;-66
2023/01/02 00:38:38;;;;;;;13.85;3.75;;;16.60;69.70;;;;;;5070599;28;20073;-68
2023/01/02 00:41:05;;;;;;;16.35;2.95;;;16.60;70.30;;;;;;5070481;28;20160;-66
2023/01/02 00:43:32;;;;;;;23.85;4.15;;;16.50;71.00;;;;;;5073508;28;20126;-69
2023/01/02 00:45:58;;;;;;;15.20;2.70;;;16.50;72.00;;;;;;5080459;28;20101;-67
2023/01/02 00:48:25;;;;;;;20.00;3.28;;;16.30;72.60;;;;;;5072840;28;20130;-64
2023/01/02 00:50:51;;;;;;;14.23;3.50;;;16.40;73.60;;;;;;5082143;28;20071;-64
2023/01/02 00:53:18;;;;;;;11.73;2.72;;;16.30;74.10;;;;;;5084425;28;20155;-66
2023/01/02 00:55:45;;;;;;;7.03;2.65;;;16.30;74.50;;;;;;5076613;28;20083;-64
2023/01/02 00:58:12;;;;;;;18.58;3.75;;;16.20;75.00;;;;;;5071890;28;20104;-65
2023/01/02 01:00:39;;;;;;;9.77;2.70;;;16.20;76.00;;;;;;5080998;28;20193;-65
2023/01/02 01:03:06;;;;;;;25.27;4.07;;;16.20;76.00;;;;;;5074581;28;20541;-65
2023/01/02 01:05:32;;;;;;;14.48;3.50;;;16.20;75.80;;;;;;5070961;28;20511;-65
2023/01/02 01:07:58;;;;;;;18.00;4.30;;;16.20;75.60;;;;;;5076855;28;20083;-66
2023/01/02 01:10:26;;;;;;;21.33;6.10;;;16.20;76.10;;;;;;5071933;28;20077;-64
2023/01/02 01:12:52;;;;;;;15.70;3.08;;;16.10;75.80;;;;;;5070883;28;20100;-67
2023/01/02 01:15:19;;;;;;;10.73;3.80;;;16.10;75.90;;;;;;5088135;28;20088;-68
2023/01/02 01:17:45;;;;;;;11.75;3.50;;;16.10;76.10;;;;;;5079671;28;20130;-67
2023/01/02 01:20:11;;;;;;;12.55;3.45;;;16.10;76.50;;;;;;5077645;28;20095;-68
2023/01/02 01:22:38;;;;;;;16.85;5.07;;;16.00;76.60;;;;;;5078684;28;20561;-67
2023/01/02 01:25:05;;;;;;;7.85;2.58;;;15.90;76.70;;;;;;5079240;28;20096;-66
2023/01/02 01:27:31;;;;;;;11.25;2.42;;;15.90;77.50;;;;;;5077078;28;20096;-66
2023/01/02 01:29:58;;;;;;;13.57;2.90;;;15.80;77.40;;;;;;5080331;28;20517;-67
2023/01/02 01:32:24;;;;;;;13.93;1.90;;;15.80;77.60;;;;;;5074450;28;20157;-65
2023/01/02 01:34:50;;;;;;;13.73;2.75;;;15.70;77.70;;;;;;5076898;28;21024;-66
2023/01/02 01:37:17;;;;;;;7.55;2.45;;;15.60;78.40;;;;;;5079466;28;20125;-66
2023/01/02 01:39:43;;;;;;;10.18;2.72;;;15.60;78.70;;;;;;5083709;28;20479;-66
2023/01/02 01:42:13;;;;;;;6.93;2.58;;;15.60;78.60;;;;;;5074863;28;20093;-70
2023/01/02 01:44:48;;;;;;;12.38;2.45;;;15.60;78.60;;;;;;5079358;28;20446;-69
2023/01/02 01:47:17;;;;;;;7.13;2.50;;;15.60;78.50;;;;;;5077395;28;20091;-68
2023/01/02 01:49:45;;;;;;;12.60;3.00;;;15.60;78.90;;;;;;5080026;28;20080;-67
2023/01/02 01:52:16;;;;;;;9.50;2.78;;;15.60;78.90;;;;;;5074585;28;20069;-69
2023/01/02 01:54:52;;;;;;;7.30;2.13;;;15.60;79.50;;;;;;5074641;28;20097;-69
2023/01/02 01:57:54;;;;;;;19.70;2.75;;;15.60;79.30;;;;;;5074600;28;20074;-70
2023/01/02 02:00:20;;;;;;;10.52;3.30;;;15.60;79.60;;;;;;5075778;28;20465;-71
2023/01/02 02:02:52;;;;;;;7.20;3.13;;;15.50;79.60;;;;;;5075291;28;20151;-67
2023/01/02 02:05:22;;;;;;;9.93;3.55;;;15.60;79.60;;;;;;5078151;28;20581;-68
2023/01/02 02:08:04;;;;;;;8.77;2.72;;;15.60;79.60;;;;;;5086018;28;20076;-67
2023/01/02 02:10:30;;;;;;;7.05;3.00;;;15.50;79.40;;;;;;5082698;28;20529;-70
2023/01/02 02:12:57;;;;;;;9.23;3.40;;;15.50;79.80;;;;;;5080962;28;20065;-72
2023/01/02 02:15:38;;;;;;;17.20;3.15;;;15.50;79.50;;;;;;5082072;28;20069;-72
2023/01/02 02:18:04;;;;;;;9.10;2.70;;;15.40;79.40;;;;;;5079872;28;20601;-71
2023/01/02 02:20:56;;;;;;;10.25;2.72;;;15.40;79.20;;;;;;5079630;28;20101;-70
2023/01/02 02:23:28;;;;;;;9.32;3.08;;;15.40;79.00;;;;;;5078451;28;20073;-71
2023/01/02 02:26:36;;;;;;;8.05;3.00;;;15.40;78.90;;;;;;5084591;28;20137;-70
2023/01/02 02:29:30;;;;;;;12.57;3.25;;;15.40;79.50;;;;;;5083828;28;20076;-69
2023/01/02 02:32:33;;;;;;;9.77;2.80;;;15.40;79.80;;;;;;5081059;28;20065;-68
2023/01/02 02:35:26;;;;;;;9.40;2.47;;;15.40;80.00;;;;;;5063300;28;20595;-70
2023/01/02 02:38:11;;;;;;;8.23;3.10;;;15.40;80.20;;;;;;5050822;28;20086;-69
2023/01/02 02:40:56;;;;;;;10.00;3.17;;;15.30;80.00;;;;;;5050776;28;20089;-69
2023/01/02 02:43:34;;;;;;;7.85;2.80;;;15.30;80.30;;;;;;5050459;28;20128;-70
2023/01/02 02:46:25;;;;;;;8.75;2.70;;;15.30;80.50;;;;;;5049610;28;20636;-69
2023/01/02 02:49:14;;;;;;;6.43;2.40;;;15.30;80.90;;;;;;5048106;28;20108;-69
2023/01/02 02:52:04;;;;;;;8.68;2.17;;;15.20;81.40;;;;;;5048850;28;20119;-70
2023/01/02 02:54:35;;;;;;;10.38;1.95;;;15.20;81.60;;;;;;5049176;28;20186;-67
2023/01/02 02:57:05;;;;;;;13.48;2.03;;;15.20;81.60;;;;;;5032935;28;20093;-68
2023/01/02 02:59:34;;;;;;;11.27;2.35;;;15.20;81.70;;;;;;5049528;28;20124;-71
2023/01/02 03:02:02;;;;;;;8.77;1.83;;;15.20;82.00;;;;;;5047992;28;20085;-71
2023/01/02 03:04:29;;;;;;;6.97;1.80;;;15.20;82.00;;;;;;5049631;28;20589;-71
2023/01/02 03:07:16;;;;;;;13.40;2.15;;;15.30;81.70;;;;;;5049340;28;20093;-69
2023/01/02 03:10:28;;;;;;;10.98;2.40;;;15.20;81.60;;;;;;5049062;28;20089;-71
2023/01/02 03:13:19;;;;;;;15.80;2.10;;;15.30;81.70;;;;;;5044587;28;20451;-70
2023/01/02 03:16:01;;;;;;;5.78;2.22;;;15.20;82.10;;;;;;5074476;28;20135;-69
2023/01/02 03:18:31;;;;;;;9.60;2.40;;;15.20;82.10;;;;;;5076258;28;20094;-68
2023/01/02 03:21:06;;;;;;;6.88;2.00;;;15.20;82.10;;;;;;5080795;28;20093;-70
2023/01/02 03:23:41;;;;;;;9.05;2.28;;;15.20;82.10;;;;;;5082743;28;20079;-73
2023/01/02 03:26:08;;;;;;;7.30;2.15;;;15.20;82.40;;;;;;5081453;28;20491;-70
2023/01/02 03:28:40;;;;;;;8.85;2.30;;;15.10;82.60;;;;;;5078704;28;20079;-70
2023/01/02 03:31:13;;;;;;;8.73;2.30;;;15.10;83.00;;;;;;5079898;28;20544;-70
2023/01/02 03:33:44;;;;;;;7.57;2.17;;;15.20;83.40;;;;;;5073866;28;20073;-70
2023/01/02 03:36:19;;;;;;;3.97;1.65;;;15.20;83.80;;;;;;5075887;28;20077;-72
2023/01/02 03:39:07;;;;;;;7.85;2.20;;;15.20;84.10;;;;;;5072188;28;20160;-68
2023/01/02 03:41:39;;;;;;;7.45;2.35;;;15.20;84.70;;;;;;5075638;28;21591;-70
2023/01/02 03:44:08;;;;;;;8.77;2.70;;;15.10;85.00;;;;;;5077596;28;20077;-70
2023/01/02 03:46:47;;;;;;;9.85;2.67;;;15.20;86.00;;;;;;5076395;28;20127;-72
2023/01/02 03:49:37;;;;;;;12.88;3.08;;;15.20;86.30;;;;;;5072499;28;20583;-70
2023/01/02 03:52:03;;;;;;;10.07;2.83;;;15.20;86.90;;;;;;5076315;28;20081;-70
2023/01/02 03:54:30;;;;;;;9.32;3.30;;;15.10;87.40;;;;;;5080699;28;20092;-69
2023/01/02 03:57:02;;;;;;;7.00;2.38;;;15.10;87.90;;;;;;5075600;28;20069;-70
2023/01/02 03:59:48;;;;;;;7.35;2.42;;;15.10;88.10;;;;;;5073716;28;20112;-67
2023/01/02 04:02:46;;;;;;;6.40;2.05;;;15.10;88.10;;;;;;5074442;28;20076;-68
2023/01/02 04:05:22;;;;;;;6.50;1.90;;;15.10;88.20;;;;;;5063049;28;20108;-68
2023/01/02 04:08:14;;;;;;;7.05;1.90;;;15.20;88.40;;;;;;5083701;28;20181;-67
2023/01/02 04:10:44;;;;;;;5.07;1.80;;;15.10;88.40;;;;;;5034538;28;20519;-66
2023/01/02 04:13:22;;;;;;;8.73;1.90;;;15.10;88.70;;;;;;5033998;28;20598;-67
2023/01/02 04:15:50;;;;;;;4.03;1.60;;;15.10;88.70;;;;;;5028795;28;20089;-67
2023/01/02 04:18:22;;;;;;;5.15;1.70;;;15.10;89.00;;;;;;5029567;28;20236;-66
2023/01/02 04:20:52;;;;;;;6.95;1.98;;;15.10;89.10;;;;;;5034726;28;20557;-65
2023/01/02 04:23:33;;;;;;;5.30;2.00;;;15.00;89.10;;;;;;5030453;28;20081;-67
2023/01/02 04:26:05;;;;;;;4.88;1.30;;;15.00;88.40;;;;;;5026612;28;20089;-69
2023/01/02 04:28:33;;;;;;;3.80;1.13;;;15.00;87.80;;;;;;5031900;28;20563;-69
2023/01/02 04:31:13;;;;;;;3.22;1.00;;;15.10;86.50;;;;;;5036349;28;20074;-69
2023/01/02 04:33:44;;;;;;;5.40;1.15;;;15.20;86.00;;;;;;5039639;28;20692;-69
2023/01/02 04:36:13;;;;;;;3.95;1.08;;;15.30;85.30;;;;;;5035678;28;20074;-66
2023/01/02 04:38:41;;;;;;;6.07;1.20;;;15.30;84.40;;;;;;5035612;28;20078;-68
2023/01/02 04:41:09;;;;;;;3.38;1.10;;;15.30;84.30;;;;;;5036873;28;20084;-69
2023/01/02 04:43:35;;;;;;;5.90;1.65;;;15.40;84.80;;;;;;5034170;28;20086;-68
2023/01/02 04:46:02;;;;;;;4.60;1.30;;;15.30;85.70;;;;;;5035512;28;20102;-69
2023/01/02 04:48:28;;;;;;;5.45;1.63;;;15.20;86.50;;;;;;5076726;28;20565;-69
2023/01/02 04:50:54;;;;;;;4.50;1.90;;;15.20;87.90;;;;;;5078751;28;20091;-70
2023/01/02 04:53:21;;;;;;;5.05;1.38;;;15.10;88.80;;;;;;5074619;28;20069;-67
2023/01/02 04:55:48;;;;;;;4.55;1.20;;;15.10;89.10;;;;;;5077075;28;20073;-67
2023/01/02 04:58:14;;;;;;;5.70;1.40;;;15.10;89.30;;;;;;5078880;28;20126;-68
2023/01/02 05:00:40;;;;;;;8.40;1.60;;;15.20;89.40;;;;;;5074975;28;20112;-71
2023/01/02 05:03:07;;;;;;;3.38;1.30;;;15.10;89.40;;;;;;5074510;28;20077;-69
2023/01/02 05:05:33;;;;;;;4.05;1.20;;;15.20;88.40;;;;;;5077745;28;20112;-68
2023/01/02 05:08:00;;;;;;;3.15;1.27;;;15.20;87.30;;;;;;5076029;28;20425;-66
2023/01/02 05:10:26;;;;;;;5.40;1.42;;;15.30;87.10;;;;;;5072460;28;20072;-69
2023/01/02 05:12:52;;;;;;;4.07;1.20;;;15.30;86.60;;;;;;5078869;28;20077;-67
2023/01/02 05:15:19;;;;;;;2.40;1.00;;;15.30;86.90;;;;;;5072074;28;20126;-67
2023/01/02 05:17:45;;;;;;;5.40;1.30;;;15.40;86.80;;;;;;5076602;28;20101;-66
2023/01/02 05:20:12;;;;;;;6.15;1.45;;;15.40;87.30;;;;;;5073228;28;20103;-68
2023/01/02 05:25:26;;;;;;;4.30;1.42;;;15.30;88.00;;;;;;5075029;28;20111;-69
2023/01/02 05:27:54;;;;;;;4.50;1.20;;;15.30;88.80;;;;;;5076010;28;20112;-68
2023/01/02 05:30:21;;;;;;;5.47;1.35;;;15.30;89.20;;;;;;5082226;28;20077;-70
2023/01/02 05:32:48;;;;;;;6.25;1.40;;;15.20;89.70;;;;;;5080642;28;20559;-69
2023/01/02 05:35:14;;;;;;;6.82;1.80;;;15.30;90.10;;;;;;5080613;28;20073;-67
2023/01/02 05:37:41;;;;;;;7.75;2.25;;;15.30;90.20;;;;;;5082470;28;20861;-67
2023/01/02 05:40:08;;;;;;;8.65;2.00;;;15.20;90.30;;;;;;5083925;28;20494;-66
2023/01/02 05:42:34;;;;;;;9.93;2.13;;;15.20;90.50;;;;;;5079352;28;20560;-67
2023/01/02 05:45:01;;;;;;;10.65;2.13;;;15.30;90.50;;;;;;5074664;28;20117;-67
2023/01/02 05:47:27;;;;;;;9.65;2.30;;;15.30;90.50;;;;;;5083065;28;20095;-68
2023/01/02 05:49:54;;;;;;;7.88;1.92;;;15.20;90.50;;;;;;5080540;28;20081;-70
2023/01/02 05:52:20;;;;;;;;;;;15.20;90.60;;;;;;5081334;28;20068;-70
2023/01/02 05:54:46;;;;;;;10.73;2.55;;;15.20;90.70;;;;;;5081770;28;19973;-69
2023/01/02 05:57:12;;;;;;;11.85;2.10;;;15.30;90.60;;;;;;5077418;28;20080;-70
2023/01/02 05:59:39;;;;;;;10.38;2.63;;;15.20;90.50;;;;;;5077808;28;20141;-70
2023/01/02 06:02:05;;;;;;;8.23;2.22;;;15.30;90.70;;;;;;5077021;28;20088;-69
2023/01/02 06:04:31;;;;;;;9.13;2.25;;;15.30;90.50;;;;;;5085121;28;20080;-70
2023/01/02 06:06:58;;;;;;;11.15;2.22;;;15.30;90.50;;;;;;5077869;28;20106;-71
2023/01/02 06:09:24;;;;;;;14.32;2.65;;;15.30;90.40;;;;;;5079045;28;20069;-67
2023/01/02 06:11:50;;;;;;;;;;;15.20;90.40;;;;;;5076959;28;20107;-68
2023/01/02 06:14:17;;;;;;;6.75;2.25;;;15.30;90.90;;;;;;5083260;28;19964;-70
2023/01/02 06:16:43;;;;;;;11.85;2.70;;;15.30;90.40;;;;;;5085190;28;20121;-68
2023/01/02 06:19:09;;;;;;;13.43;2.65;;;15.30;90.20;;;;;;5080121;28;20107;-68
2023/01/02 06:21:36;;;;;;;17.13;3.28;;;15.30;90.30;;;;;;5080686;28;20065;-69
2023/01/02 06:24:02;;;;;;;10.38;2.50;;;15.30;90.40;;;;;;5080484;28;20430;-70
2023/01/02 06:26:29;;;;;;;12.35;2.70;;;15.30;90.30;;;;;;5080061;28;20449;-71
2023/01/02 06:28:56;;;;;;;15.70;3.33;;;15.30;90.70;;;;;;5080019;28;20065;-69
2023/01/02 06:31:25;;;;;;;12.02;3.78;;;15.30;90.20;;;;;;5079920;28;20148;-66
2023/01/02 06:33:56;;;;;;;12.75;2.92;;;15.50;90.30;;;;;;5087460;28;20430;-68
2023/01/02 06:36:23;;;;;;;11.45;3.00;;;15.60;90.10;;;;;;5079071;28;20092;-68
2023/01/02 06:38:50;;;;;;;14.13;3.42;;;15.80;89.60;;;;;;5075109;28;20097;-66
2023/01/02 06:41:16;;;;;;;11.73;2.50;;;15.90;88.40;;;;;;5086762;28;20118;-68
2023/01/02 06:43:46;;;;;;;10.10;3.00;;;16.00;88.40;;;;;;5083525;28;20087;-67
2023/01/02 06:46:13;;;;;;;7.30;2.08;;;16.10;88.20;;;;;;5079119;28;20091;-68
2023/01/02 06:48:40;;;;;;;10.70;2.67;;;15.90;88.20;;;;;;5082679;28;20106;-67
2023/01/02 06:51:09;;;;;;;8.20;2.40;;;16.00;88.90;;;;;;5086526;28;20152;-66
2023/01/02 06:53:38;;;;;;;11.48;2.45;;;15.90;88.40;;;;;;5080356;28;20080;-69
2023/01/02 06:56:05;;;;;;;6.97;1.98;;;15.90;88.20;;;;;;5077610;28;20100;-68
2023/01/02 06:58:33;;;;;;;11.63;2.80;;;15.90;88.40;;;;;;5086104;28;20084;-66
2023/01/02 07:01:07;;;;;;;10.20;2.63;;;16.00;87.70;;;;;;5077314;28;20622;-69
2023/01/02 07:03:33;;;;;;;10.45;2.47;;;16.10;87.40;;;;;;5079101;28;20072;-67
2023/01/02 07:06:05;;;;;;;13.63;6.35;;;15.70;88.20;;;;;;5083586;28;20168;-68
2023/01/02 07:08:32;;;;;;;9.77;2.33;;;15.70;88.20;;;;;;5079778;28;20097;-66
2023/01/02 07:11:13;;;;;;;7.25;2.00;;;15.60;88.60;;;;;;5081184;28;20152;-66
2023/01/02 07:13:40;;;;;;;6.57;2.13;;;15.70;88.30;;;;;;5077708;28;20092;-66
2023/01/02 07:16:10;;;;;;;7.97;2.53;;;15.60;87.70;;;;;;5078915;28;20076;-67
2023/01/02 07:18:36;;;;;;;8.02;2.00;;;15.60;87.60;;;;;;5081920;28;20094;-66
2023/01/02 07:21:05;;;;;;;10.30;2.80;;;15.60;87.70;;;;;;5079335;28;20602;-68
2023/01/02 07:23:31;;;;;;;9.07;2.60;;;15.50;87.80;;;;;;5078546;28;20159;-68
2023/01/02 07:26:00;;;;;;;7.38;1.83;;;15.60;87.70;;;;;;5077764;28;20084;-67
2023/01/02 07:28:27;;;;;;;12.52;3.03;;;15.40;87.90;;;;;;5080595;28;20548;-70
2023/01/02 07:30:59;;;;;;;9.00;2.40;;;15.40;88.10;;;;;;5082669;28;20065;-67
2023/01/02 07:33:27;;;;;;;7.38;2.10;;;15.30;88.60;;;;;;5084126;28;20071;-69
2023/01/02 07:35:58;;;;;;;6.53;2.13;;;15.40;88.40;;;;;;5080196;28;20427;-66
2023/01/02 07:38:25;;;;;;;6.95;1.83;;;15.20;88.50;;;;;;5081496;28;20081;-66
2023/01/02 07:40:51;;;;;;;6.53;2.13;;;15.20;88.40;;;;;;5079558;28;20104;-66
2023/01/02 07:43:18;;;;;;;9.80;2.90;;;15.20;88.50;;;;;;5075920;28;20440;-69
2023/01/02 07:45:44;;;;;;;6.88;2.45;;;15.20;88.80;;;;;;5082966;28;20092;-68
2023/01/02 07:48:10;;;;;;;6.22;2.13;;;15.20;88.80;;;;;;5080565;28;20092;-67
2023/01/02 07:50:37;;;;;;;5.63;1.95;;;15.20;88.50;;;;;;5079954;28;20504;-67
2023/01/02 07:53:03;;;;;;;9.13;2.38;;;15.20;88.10;;;;;;5079293;28;20065;-68
2023/01/02 07:55:30;;;;;;;6.82;1.90;;;15.30;88.10;;;;;;5082752;28;20414;-66
2023/01/02 07:57:56;;;;;;;8.70;2.22;;;15.30;88.00;;;;;;5080884;28;20581;-69
2023/01/02 08:00:23;;;;;;;8.18;1.90;;;15.30;87.60;;;;;;5077701;28;20195;-69
2023/01/02 08:02:51;;;;;;;6.68;2.13;;;15.30;87.70;;;;;;5079266;28;20168;-67
2023/01/02 08:05:18;;;;;;;5.43;2.00;;;15.30;87.70;;;;;;5079846;28;20085;-68
2023/01/02 08:07:44;;;;;;;8.98;2.00;;;15.30;87.60;;;;;;5084338;28;20176;-66
2023/01/02 08:10:11;;;;;;;10.00;2.33;;;15.40;87.50;;;;;;5082713;28;20076;-68
2023/01/02 08:12:38;;;;;;;5.70;2.10;;;15.40;87.80;;;;;;5077573;28;20541;-67
2023/01/02 08:15:05;;;;;;;10.20;2.45;;;15.30;88.00;;;;;;5075098;28;20073;-66
2023/01/02 08:17:32;;;;;;;8.70;2.28;;;15.30;88.50;;;;;;5078768;28;20085;-68
2023/01/02 08:19:59;;;;;;;10.15;2.17;;;15.30;88.20;;;;;;5073470;28;20088;-67
2023/01/02 08:22:25;;;;;;;9.63;2.13;;;15.30;87.30;;;;;;5078158;28;20073;-68
2023/01/02 08:24:51;;;;;;;7.30;1.88;;;15.30;87.20;;;;;;5075381;28;20124;-69
2023/01/02 08:27:18;;;;;;;10.75;2.63;;;15.30;87.20;;;;;;5076610;28;20069;-69
2023/01/02 08:29:44;;;;;;;6.50;2.13;;;15.40;87.40;;;;;;5081378;28;20076;-67
2023/01/02 08:32:10;;;;;;;9.10;2.00;;;15.40;87.70;;;;;;5076676;28;20186;-69
2023/01/02 08:34:37;;;;;;;6.32;1.85;;;15.30;87.70;;;;;;5074243;28;20073;-69
2023/01/02 08:37:03;;;;;;;10.15;2.38;;;15.30;87.80;;;;;;5080557;28;20576;-67
2023/01/02 08:39:30;;;;;;;8.80;2.17;;;15.30;88.20;;;;;;5080512;28;20119;-68
2023/01/02 08:41:57;;;;;;;9.60;2.13;;;15.20;88.00;;;;;;5075090;28;20530;-68
2023/01/02 08:44:24;;;;;;;5.45;1.83;;;15.20;87.90;;;;;;5080502;28;20587;-68
2023/01/02 08:46:50;;;;;;;7.57;2.00;;;15.20;87.90;;;;;;5075091;28;20088;-68
2023/01/02 08:49:17;;;;;;;9.93;2.30;;;15.30;88.00;;;;;;5074651;28;20061;-67
2023/01/02 08:51:43;;;;;;;8.27;2.20;;;15.20;87.90;;;;;;5082120;28;20097;-66
2023/01/02 08:54:10;;;;;;;7.28;1.90;;;15.20;88.10;;;;;;5074166;28;20520;-67
2023/01/02 08:56:37;;;;;;;7.30;2.05;;;15.20;88.40;;;;;;5075917;28;20069;-67
2023/01/02 08:59:09;;;;;;;10.50;2.28;;;15.20;88.50;;;;;;5079940;28;20510;-68
2023/01/02 09:01:36;;;;;;;6.00;1.77;;;15.10;88.70;;;;;;5075853;28;20080;-68
2023/01/02 09:04:03;;;;;;;7.30;2.05;;;15.10;89.10;;;;;;5082316;28;20084;-66
2023/01/02 09:06:32;;;;;;;10.70;2.67;;;15.10;89.70;;;;;;5077756;28;20558;-70
2023/01/02 09:08:59;;;;;;;9.23;2.30;;;15.00;90.00;;;;;;5080981;28;20077;-67
2023/01/02 09:11:28;;;;;;;7.55;2.13;;;15.00;89.90;;;;;;5078751;28;20535;-68
2023/01/02 09:13:55;;;;;;;9.80;2.03;;;15.00;89.90;;;;;;5082546;28;20073;-67
2023/01/02 09:16:22;;;;;;;7.50;2.50;;;15.10;90.00;;;;;;5082297;28;20093;-66
2023/01/02 09:18:49;;;;;;;7.93;2.15;;;15.00;90.10;;;;;;5084469;28;20069;-66
2023/01/02 09:21:15;;;;;;;8.57;2.33;;;15.10;90.20;;;;;;5086242;28;20073;-69
2023/01/02 09:23:42;;;;;;;7.47;2.15;;;15.10;90.40;;;;;;5078506;28;20081;-67
2023/01/02 09:26:11;;;;;;;8.20;2.03;;;15.00;90.40;;;;;;5088112;28;20104;-66
2023/01/02 09:28:38;;;;;;;6.70;2.40;;;14.90;90.60;;;;;;5083299;28;20494;-68
2023/01/02 09:31:09;;;;;;;13.82;2.63;;;14.90;90.80;;;;;;5079061;28;20076;-68
2023/01/02 09:33:36;;;;;;;10.23;2.58;;;14.90;90.80;;;;;;5075767;28;20222;-68
2023/01/02 09:36:04;;;;;;;9.65;2.65;;;14.80;90.90;;;;;;5077457;28;20069;-67
2023/01/02 09:38:30;;;;;;;8.18;2.25;;;14.80;91.20;;;;;;5082608;28;20076;-68
2023/01/02 09:41:00;;;;;;;10.60;2.55;;;14.70;91.40;;;;;;5083910;28;20089;-67
2023/01/02 09:43:36;;;;;;;9.98;2.45;;;14.70;91.30;;;;;;5078682;28;20203;-66
2023/01/02 09:46:06;;;;;;;7.93;1.75;;;14.70;91.30;;;;;;5081843;28;20095;-68
2023/01/02 09:48:35;;;;;;;7.20;2.03;;;14.60;91.40;;;;;;5078837;28;20472;-68
2023/01/02 09:51:04;;;;;;;7.53;2.03;;;14.60;91.50;;;;;;5080661;28;20068;-65
2023/01/02 09:53:32;;;;;;;7.43;1.90;;;14.60;91.60;;;;;;5076196;28;20073;-68
2023/01/02 09:56:24;;;;;;;7.50;2.13;;;14.50;91.90;;;;;;5084571;28;20080;-69
2023/01/02 09:59:17;;;;;;;11.02;2.30;;;14.40;92.00;;;;;;5079843;28;20085;-68
2023/01/02 10:01:43;;;;;;;9.23;2.15;;;14.30;92.10;;;;;;5070606;28;20103;-66
2023/01/02 10:04:30;;;;;;;;;;;14.30;92.40;;;;;;5084487;28;20534;-67
2023/01/02 10:07:25;;;;;;;8.30;1.85;;;14.20;92.40;;;;;;5080700;28;19973;-68
2023/01/02 10:10:08;;;;;;;10.77;1.88;;;14.20;92.60;;;;;;5084186;28;20073;-68
2023/01/02 10:13:10;;;;;;;9.20;2.00;;;14.20;92.50;;;;;;5081436;28;20092;-68
2023/01/02 10:15:37;;;;;;;9.48;2.00;;;14.10;92.50;;;;;;5077853;28;20161;-68
2023/01/02 10:18:34;;;;;;;6.63;2.10;;;14.00;92.70;;;;;;5075781;28;20425;-67
2023/01/02 10:21:20;;;;;;;6.07;1.70;;;14.00;92.90;;;;;;5076202;28;20108;-69
2023/01/02 10:23:50;;;;;;;7.65;2.22;;;14.00;92.90;;;;;;5079567;28;20129;-68
2023/01/02 10:26:19;;;;;;;9.80;2.22;;;14.00;92.70;;;;;;5078971;28;20160;-68
2023/01/02 10:28:45;;;;;;;10.65;2.33;;;13.90;92.60;;;;;;5081876;28;20122;-69
2023/01/02 10:31:35;;;;;;;;;;;14.00;92.60;;;;;;5084278;28;20095;-68
2023/01/02 10:34:03;;;;;;;8.18;2.25;;;13.90;92.60;;;;;;5069588;28;19961;-68
2023/01/02 10:36:40;;;;;;;7.82;1.80;;;13.90;92.70;;;;;;5082434;28;20080;-67
2023/01/02 10:39:29;;;;;;;6.78;2.08;;;14.00;92.60;;;;;;5085343;28;20440;-68
2023/01/02 10:41:58;;;;;;;11.45;2.10;;;14.00;92.40;;;;;;5082682;28;20076;-66
2023/01/02 10:44:36;;;;;;;6.72;1.60;;;13.90;92.40;;;;;;5079988;28;20089;-68
2023/01/02 10:47:31;;;;;;;10.57;2.22;;;13.90;92.30;;;;;;5082423;28;20222;-67
2023/01/02 10:49:58;;;;;;;10.68;2.05;;;13.90;92.30;;;;;;5086377;28;20077;-68
2023/01/02 10:52:48;;;;;;;7.38;2.05;;;13.90;92.30;;;;;;5078754;28;20426;-68
2023/01/02 10:55:31;;;;;;;8.32;2.05;;;14.00;92.20;;;;;;5077100;28;20117;-66
2023/01/02 10:58:06;;;;;;;7.40;1.88;;;14.00;92.10;;;;;;5080034;28;20109;-68
2023/01/02 11:00:35;;;;;;;7.35;2.05;;;13.90;92.10;;;;;;5076603;28;20151;-67
2023/01/02 11:03:07;;;;;;;9.60;1.70;;;13.90;92.10;;;;;;5085609;28;20077;-66
2023/01/02 11:05:44;;;;;;;5.38;1.88;;;13.90;92.10;;;;;;5080431;28;20171;-66
2023/01/02 11:08:12;;;;;;;;;;;13.90;92.00;;;;;;5087045;28;20076;-67
2023/01/02 11:10:38;;;;;;;;;;;13.90;92.30;;;;;;5081270;28;19967;-67
2023/01/02 11:13:11;;;;;;;8.68;1.50;;;13.90;92.30;;;;;;5076770;28;20461;-68
2023/01/02 11:15:49;;;;;;;8.75;1.60;;;13.90;92.40;;;;;;5077225;28;20073;-66
2023/01/02 11:18:31;;;;;;;7.40;1.98;;;13.90;92.30;;;;;;5074275;28;20073;-66
2023/01/02 11:21:03;;;;;;;10.63;2.13;;;13.80;92.60;;;;;;5082928;28;20088;-66
2023/01/02 11:23:43;;;;;;;14.55;2.38;;;13.80;92.50;;;;;;5076229;28;20454;-66
2023/01/02 11:26:22;;;;;;;5.88;1.80;;;13.80;92.50;;;;;;5078581;28;20076;-68
2023/01/02 11:28:52;;;;;;;8.80;2.80;;;13.70;92.70;;;;;;5077977;28;20208;-68
2023/01/02 11:31:20;;;;;;;6.75;2.13;;;13.60;92.80;;;;;;5080587;28;20099;-66
2023/01/02 11:33:46;;;;;;;8.95;2.40;;;13.50;93.10;;;;;;5080061;28;20525;-67
2023/01/02 11:36:18;;;;;;;6.95;2.45;;;13.40;94.00;;;;;;5083590;28;20069;-68
2023/01/02 11:38:46;;;;;;;6.63;2.25;;;13.40;93.90;;;;;;5073121;28;20065;-66
2023/01/02 11:44:35;;;;;;;7.63;2.63;;;13.30;94.20;;;;;;5076722;28;20068;-67
2023/01/02 11:47:02;;;;;;;9.98;2.33;;;13.20;94.50;;;;;;5080259;28;20112;-68
2023/01/02 11:49:49;;;;;;;11.27;2.40;;;13.30;94.30;;;;;;5079896;28;20084;-66
2023/01/02 11:52:24;;;;;;;6.43;1.80;;;13.30;94.20;;;;;;5077489;28;20465;-66
2023/01/02 11:55:09;;;;;;;7.57;2.13;;;13.30;94.30;;;;;;5078725;28;20108;-68
2023/01/02 11:57:48;;;;;;;11.50;2.63;;;13.30;94.30;;;;;;5078871;28;20085;-67
2023/01/02 12:00:18;;;;;;;9.13;2.38;;;13.30;94.30;;;;;;5078351;28;20642;-67
2023/01/02 12:02:52;;;;;;;5.93;2.13;;;13.30;94.30;;;;;;5075428;28;20085;-67
2023/01/02 12:05:18;;;;;;;9.20;2.60;;;13.30;94.70;;;;;;5078688;28;20085;-68
2023/01/02 12:07:45;;;;;;;;;;;13.20;94.80;;;;;;5079902;28;20073;-69
2023/01/02 12:10:40;;;;;;;16.52;2.47;;;13.10;94.90;;;;;;5077242;28;19980;-66
2023/01/02 12:13:12;;;;;;;13.57;2.72;;;13.10;95.00;;;;;;5076165;28;20069;-68
2023/01/02 12:15:48;;;;;;;9.43;2.08;;;13.10;94.90;;;;;;5074982;28;20076;-68
2023/01/02 12:18:30;;;;;;;9.35;2.45;;;13.20;95.00;;;;;;5082346;28;20167;-68
2023/01/02 12:21:14;;;;;;;6.93;1.98;;;13.20;95.00;;;;;;5078503;28;20068;-68
2023/01/02 12:24:05;;;;;;;6.53;2.00;;;13.10;94.80;;;;;;5076504;28;20101;-68
2023/01/02 12:26:50;;;;;;;8.40;2.22;;;13.10;95.00;;;;;;5081993;28;20080;-66
2023/01/02 12:29:26;;;;;;;10.77;2.40;;;13.10;95.20;;;;;;5077894;28;20524;-68
2023/01/02 12:32:25;;;;;;;9.63;2.63;;;13.10;95.40;;;;;;5077554;28;20072;-67
2023/01/02 12:35:28;;;;;;;8.68;2.70;;;13.10;95.40;;;;;;5063489;28;20113;-66
2023/01/02 12:38:01;;;;;;;7.15;2.20;;;13.10;95.60;;;;;;5079880;28;20068;-66
2023/01/02 12:40:42;;;;;;;9.93;2.35;;;13.20;95.40;;;;;;5075910;28;20589;-66
2023/01/02 12:43:37;;;;;;;8.50;2.22;;;13.20;95.40;;;;;;5075792;28;20073;-67
2023/01/02 12:46:13;;;;;;;11.63;2.63;;;13.20;95.10;;;;;;5076515;28;20473;-68
2023/01/02 12:49:15;;;;;;;6.45;1.80;;;13.20;95.40;;;;;;5082220;28;20115;-66
2023/01/02 12:51:55;;;;;;;6.28;1.80;;;13.30;95.40;;;;;;5079101;28;20100;-68
2023/01/02 12:54:24;;;;;;;7.82;1.77;;;13.40;95.30;;;;;;5081018;28;20069;-66
2023/01/02 12:57:25;;;;;;;9.25;2.53;;;13.40;95.60;;;;;;5081149;28;20112;-67
2023/01/02 13:00:09;;;;;;;9.55;2.20;;;13.50;94.80;;;;;;5082477;28;20169;-65
2023/01/02 13:02:51;;;;;;;6.50;2.00;;;13.40;94.90;;;;;;5082014;28;20088;-65
2023/01/02 13:05:22;;;;;;;8.60;2.33;;;13.50;94.90;;;;;;5087312;28;20149;-67
2023/01/02 13:07:57;;;;;;;7.32;2.03;;;13.50;95.00;;;;;;5084972;28;20073;-65
2023/01/02 13:10:26;;;;;;;5.55;1.85;;;13.40;95.10;;;;;;5082738;28;20428;-66
2023/01/02 13:12:55;;;;;;;10.55;2.90;;;13.40;95.20;;;;;;5078755;28;20156;-67
2023/01/02 13:15:29;;;;;;;7.38;2.08;;;13.40;95.60;;;;;;5075484;28;20077;-68
2023/01/02 13:18:20;;;;;;;9.20;2.22;;;13.30;95.70;;;;;;5077441;28;20129;-66